KOSH/OSH METAR and TAF weather

Enter ICAO airport designator
Station Type Date Time Source
KOSH METAR 2018/12/10 12:53 UTC NOAA

KOSH 101253Z 20005KT 4SM BR CLR M10/M11 A3020 RMK AO2 SLP252 I1001 T11001111


Station Type Date Time Source
KOSH Decoded METAR 2018/12/10 12:53 UTC NOAA

WITTMAN REGIONAL AIRPORT, WI, United States (KOSH) 43-58N 88-33W 248M
Dec 10, 2018 - 07:53 AM EST / 2018.12.10 1253 UTC
Wind: from the SSW (200 degrees) at 6 MPH (5 KT):0
Visibility: 4 mile(s):0
Sky conditions: clear
Weather: mist
Temperature: 14.0 F (-10.0 C)
Windchill: 5 F (-15 C):1
Dew Point: 12.0 F (-11.1 C)
Relative Humidity: 91%
Pressure (altimeter): 30.2 in. Hg (1022 hPa)
ob: KOSH 101253Z 20005KT 4SM BR CLR M10/M11 A3020 RMK AO2 SLP252 I1001 T11001111
cycle: 13

Station Type Date Time Source
KOSH TAF 2018/10/11 06:22 UTC NOAA

TAF KOSH 110520Z 1106/1206 25016G28KT P6SM BKN015
FM111300 27017G28KT P6SM BKN020
FM111400 27018G29KT P6SM BKN015
FM112100 29018G30KT P6SM BKN050
FM120000 29013G24KT P6SM SCT120


Example: see airport list